Time;durP1;ratioP1;P1;durP2;ratioP2;P2;SDS_P1;SDS_P2;PMS_P1;PMS_P2;Temp;Humidity;BMP_temperature;BMP_pressure;BME280_temperature;BME280_humidity;BME280_pressure;Samples;Min_cycle;Max_cycle;Signal;HPM_P1;HPM_P2
2023/08/15 00:01:25;;;;;;;11.10;6.97;;;16.70;99.90;;;;;;5055548;28;20052;-26
2023/08/15 00:03:51;;;;;;;15.75;7.38;;;16.70;99.90;;;;;;5056021;28;20045;-26
2023/08/15 00:06:18;;;;;;;9.75;6.95;;;16.60;99.90;;;;;;5055417;28;20036;-26
2023/08/15 00:08:44;;;;;;;10.73;6.53;;;16.60;99.90;;;;;;5054378;28;20059;-26
2023/08/15 00:11:10;;;;;;;10.25;6.78;;;16.50;99.90;;;;;;5055292;28;20126;-27
2023/08/15 00:13:36;;;;;;;10.95;6.75;;;16.50;99.90;;;;;;5054319;28;20136;-27
2023/08/15 00:16:02;;;;;;;12.18;6.68;;;16.50;99.90;;;;;;5055167;28;20454;-26
2023/08/15 00:18:28;;;;;;;10.10;6.63;;;16.50;99.90;;;;;;5054217;28;20061;-26
2023/08/15 00:20:53;;;;;;;13.65;7.07;;;16.50;99.90;;;;;;5054560;28;20365;-27
2023/08/15 00:23:20;;;;;;;9.75;6.88;;;16.50;99.90;;;;;;5055090;28;20071;-26
2023/08/15 00:25:45;;;;;;;10.43;6.85;;;16.50;99.90;;;;;;5055030;28;20474;-27
2023/08/15 00:28:11;;;;;;;14.30;7.45;;;16.40;99.90;;;;;;5053837;28;20032;-26
2023/08/15 00:30:37;;;;;;;9.63;6.35;;;16.50;99.90;;;;;;5037420;28;20048;-26
2023/08/15 00:33:03;;;;;;;14.45;7.60;;;16.50;99.90;;;;;;5054734;28;20370;-26
2023/08/15 00:35:28;;;;;;;12.23;7.32;;;16.50;99.90;;;;;;5054200;28;20041;-26
2023/08/15 00:37:54;;;;;;;14.70;7.85;;;16.60;99.90;;;;;;5054816;28;20048;-27
2023/08/15 00:40:20;;;;;;;15.77;8.00;;;16.70;99.90;;;;;;5054740;28;20086;-26
2023/08/15 00:42:45;;;;;;;12.48;8.10;;;16.70;99.90;;;;;;5055240;28;20040;-26
2023/08/15 00:45:11;;;;;;;9.90;6.78;;;16.80;99.90;;;;;;5053962;28;20044;-26
2023/08/15 00:47:38;;;;;;;11.10;6.95;;;16.80;99.90;;;;;;5054541;28;20044;-26
2023/08/15 00:50:06;;;;;;;10.43;6.72;;;16.80;99.90;;;;;;5055099;28;20033;-26
2023/08/15 00:52:32;;;;;;;11.05;6.82;;;16.80;99.90;;;;;;5054364;28;20052;-26
2023/08/15 00:54:59;;;;;;;11.93;6.90;;;16.90;99.90;;;;;;5054513;28;20106;-27
2023/08/15 00:57:25;;;;;;;11.98;7.32;;;16.90;99.90;;;;;;5054973;28;20051;-26
2023/08/15 00:59:50;;;;;;;10.00;6.35;;;16.90;99.90;;;;;;5054398;28;20041;-27
2023/08/15 01:02:16;;;;;;;15.38;7.18;;;16.90;99.90;;;;;;5053379;28;20079;-26
2023/08/15 01:04:43;;;;;;;15.52;7.38;;;16.90;99.90;;;;;;5055110;28;20037;-26
2023/08/15 01:07:10;;;;;;;13.07;6.28;;;16.80;99.90;;;;;;5053268;28;20041;-26
2023/08/15 01:09:37;;;;;;;9.57;7.60;;;16.80;99.90;;;;;;5053792;28;20434;-26
2023/08/15 01:12:26;;;;;;;16.02;8.23;;;16.80;99.90;;;;;;5054157;28;20428;-26
2023/08/15 01:14:54;;;;;;;12.10;7.38;;;16.80;99.90;;;;;;5043029;28;20139;-27
2023/08/15 01:17:31;;;;;;;12.52;7.18;;;16.80;99.90;;;;;;5054074;28;20484;-26
2023/08/15 01:20:02;;;;;;;12.73;7.38;;;16.70;99.90;;;;;;5036498;28;20475;-26
2023/08/15 01:22:28;;;;;;;12.32;7.97;;;16.60;99.90;;;;;;5053645;28;20127;-26
2023/08/15 01:24:54;;;;;;;11.80;7.93;;;16.60;99.90;;;;;;5053895;28;20045;-26
2023/08/15 01:27:20;;;;;;;16.77;8.27;;;16.50;99.90;;;;;;5053720;28;20048;-26
2023/08/15 01:29:46;;;;;;;12.82;9.10;;;16.40;99.90;;;;;;5053940;28;20385;-26
2023/08/15 01:32:45;;;;;;;17.23;8.95;;;16.40;99.90;;;;;;5053843;28;20051;-26
2023/08/15 01:35:21;;;;;;;12.10;8.18;;;16.40;99.90;;;;;;5053655;28;20110;-26
2023/08/15 01:37:54;;;;;;;15.63;9.68;;;16.30;99.90;;;;;;5020144;28;20048;-26
2023/08/15 01:40:22;;;;;;;13.65;9.73;;;16.30;99.90;;;;;;5054651;28;20111;-26
2023/08/15 01:42:49;;;;;;;14.98;10.02;;;16.30;99.90;;;;;;5052603;28;20049;-27
2023/08/15 01:45:16;;;;;;;18.55;10.45;;;16.30;99.90;;;;;;5053096;28;20478;-26
2023/08/15 01:47:42;;;;;;;16.45;9.88;;;16.20;99.90;;;;;;5053623;28;20041;-26
2023/08/15 01:50:08;;;;;;;15.27;10.75;;;16.20;99.90;;;;;;5054253;28;20343;-26
2023/08/15 01:52:34;;;;;;;17.65;11.65;;;16.20;99.90;;;;;;5052740;28;20131;-26
2023/08/15 01:55:00;;;;;;;15.00;10.18;;;16.20;99.90;;;;;;5035596;28;20052;-26
2023/08/15 01:57:26;;;;;;;13.98;10.48;;;16.20;99.90;;;;;;5053548;28;20045;-26
2023/08/15 01:59:52;;;;;;;15.30;10.60;;;16.20;99.90;;;;;;5054139;28;20057;-26
2023/08/15 02:02:17;;;;;;;17.52;10.85;;;16.20;99.90;;;;;;5052384;28;20037;-27
2023/08/15 02:04:43;;;;;;;15.75;10.32;;;16.20;99.90;;;;;;5054334;28;20124;-26
2023/08/15 02:07:08;;;;;;;14.40;10.75;;;16.20;99.90;;;;;;5035762;28;20481;-26
2023/08/15 02:09:34;;;;;;;16.50;10.52;;;16.20;99.90;;;;;;5053692;28;20127;-26
2023/08/15 02:12:00;;;;;;;15.73;11.02;;;16.20;99.90;;;;;;5053102;28;20037;-26
2023/08/15 02:14:25;;;;;;;16.52;11.30;;;16.20;99.90;;;;;;5053458;28;20504;-26
2023/08/15 02:16:51;;;;;;;17.70;11.07;;;16.30;99.90;;;;;;5053407;28;20041;-26
2023/08/15 02:19:17;;;;;;;14.48;10.93;;;16.40;99.90;;;;;;5053421;28;20182;-26
2023/08/15 02:21:43;;;;;;;13.98;10.50;;;16.40;99.90;;;;;;5052384;28;20190;-26
2023/08/15 02:24:09;;;;;;;14.73;11.27;;;16.50;99.90;;;;;;5053381;28;20044;-26
2023/08/15 02:26:35;;;;;;;17.52;10.32;;;16.50;99.90;;;;;;5053630;28;20433;-26
2023/08/15 02:29:03;;;;;;;16.85;10.20;;;16.60;99.90;;;;;;5053509;28;20045;-26
2023/08/15 02:31:30;;;;;;;17.58;10.82;;;16.60;99.90;;;;;;5052072;28;20132;-27
2023/08/15 02:33:55;;;;;;;16.15;10.52;;;16.70;99.90;;;;;;5052275;28;20092;-26
2023/08/15 02:36:21;;;;;;;20.77;10.73;;;16.70;99.90;;;;;;5053689;28;20084;-26
2023/08/15 02:38:47;;;;;;;16.23;9.98;;;16.70;99.90;;;;;;5053243;28;20041;-26
2023/08/15 02:41:13;;;;;;;15.98;9.52;;;16.60;99.90;;;;;;5053200;28;20486;-26
2023/08/15 02:43:38;;;;;;;13.05;9.45;;;16.50;99.90;;;;;;5052191;28;20041;-27
2023/08/15 02:46:04;;;;;;;19.25;9.93;;;16.60;99.90;;;;;;5053632;28;20045;-27
2023/08/15 02:48:30;;;;;;;13.68;10.18;;;16.20;99.90;;;;;;5053088;28;20059;-26
2023/08/15 02:50:55;;;;;;;16.42;11.10;;;16.20;99.90;;;;;;5053066;28;20099;-26
2023/08/15 02:53:21;;;;;;;15.68;11.10;;;16.10;99.90;;;;;;5051967;28;20076;-26
2023/08/15 02:55:51;;;;;;;15.90;12.00;;;16.00;99.90;;;;;;5051916;28;20051;-26
2023/08/15 02:58:17;;;;;;;14.45;10.20;;;16.10;99.90;;;;;;5056193;28;20075;-25
2023/08/15 03:00:43;;;;;;;15.10;11.02;;;16.10;99.90;;;;;;5056634;28;20052;-26
2023/08/15 03:03:09;;;;;;;13.30;11.40;;;16.10;99.90;;;;;;5057132;28;20049;-25
2023/08/15 03:05:38;;;;;;;16.30;11.20;;;16.20;99.90;;;;;;5055355;28;20044;-26
2023/08/15 03:08:04;;;;;;;15.40;11.15;;;16.10;99.90;;;;;;5056458;28;20041;-26
2023/08/15 03:10:32;;;;;;;14.68;11.13;;;16.20;99.90;;;;;;5056493;28;20045;-26
2023/08/15 03:12:58;;;;;;;13.82;11.60;;;16.10;99.90;;;;;;5057240;28;20048;-26
2023/08/15 03:15:24;;;;;;;16.15;11.85;;;16.00;99.90;;;;;;5056396;28;20037;-25
2023/08/15 03:17:51;;;;;;;17.08;11.20;;;16.00;99.90;;;;;;5056373;28;20110;-26
2023/08/15 03:20:17;;;;;;;18.25;13.65;;;15.90;99.90;;;;;;5055301;28;20475;-25
2023/08/15 03:22:43;;;;;;;17.05;12.20;;;15.90;99.90;;;;;;5056474;28;20478;-26
2023/08/15 03:25:09;;;;;;;18.25;12.90;;;15.90;99.90;;;;;;5055243;28;20052;-26
2023/08/15 03:27:35;;;;;;;16.73;12.25;;;15.80;99.90;;;;;;5054580;28;20048;-26
2023/08/15 03:30:01;;;;;;;22.08;13.93;;;15.80;99.90;;;;;;5055463;28;20041;-25
2023/08/15 03:32:26;;;;;;;19.73;13.38;;;15.90;99.90;;;;;;5055770;28;20090;-26
2023/08/15 03:34:52;;;;;;;18.27;13.25;;;16.00;99.90;;;;;;5054761;28;20131;-26
2023/08/15 03:37:18;;;;;;;20.40;12.90;;;16.00;99.90;;;;;;5038480;28;20045;-26
2023/08/15 03:39:43;;;;;;;20.05;13.00;;;16.10;99.90;;;;;;5055930;28;20044;-25
2023/08/15 03:42:09;;;;;;;19.77;12.02;;;16.20;99.90;;;;;;5054756;28;20047;-26
2023/08/15 03:44:35;;;;;;;22.95;12.57;;;16.20;99.90;;;;;;5055858;28;20103;-26
2023/08/15 03:47:00;;;;;;;17.67;13.95;;;16.20;99.90;;;;;;5055680;28;20041;-27
2023/08/15 03:49:26;;;;;;;16.55;11.82;;;16.30;99.90;;;;;;5055947;28;20037;-25
2023/08/15 03:51:52;;;;;;;15.48;11.63;;;16.30;99.90;;;;;;5055719;28;20056;-26
2023/08/15 03:54:17;;;;;;;17.77;12.15;;;16.40;99.90;;;;;;5054333;28;20178;-26
2023/08/15 03:56:43;;;;;;;20.08;12.02;;;16.40;99.90;;;;;;5056269;28;20057;-26
2023/08/15 03:59:09;;;;;;;17.15;12.77;;;16.40;99.90;;;;;;5055581;28;20044;-26
2023/08/15 04:01:35;;;;;;;18.77;12.13;;;16.40;99.90;;;;;;5056077;28;20079;-26
2023/08/15 04:04:00;;;;;;;15.32;12.63;;;16.30;99.90;;;;;;5055312;28;20044;-26
2023/08/15 04:06:26;;;;;;;15.35;11.63;;;16.30;99.90;;;;;;5055432;28;20369;-26
2023/08/15 04:08:52;;;;;;;18.95;13.18;;;16.30;99.90;;;;;;5054509;28;20052;-26
2023/08/15 04:11:17;;;;;;;17.50;12.05;;;16.30;99.90;;;;;;5054908;28;20150;-26
2023/08/15 04:13:43;;;;;;;15.93;12.20;;;16.30;99.90;;;;;;5054831;28;20140;-26
2023/08/15 04:16:09;;;;;;;14.30;12.40;;;16.30;99.90;;;;;;5055216;28;20040;-26
2023/08/15 04:18:35;;;;;;;18.58;13.00;;;16.30;99.90;;;;;;5037501;28;20040;-26
2023/08/15 04:21:01;;;;;;;17.42;12.25;;;16.30;99.90;;;;;;5055001;28;20044;-26
2023/08/15 04:23:26;;;;;;;17.23;12.95;;;16.20;99.90;;;;;;5055618;28;20103;-26
2023/08/15 04:25:52;;;;;;;19.48;12.40;;;16.20;99.90;;;;;;5055093;28;20152;-25
2023/08/15 04:28:18;;;;;;;17.60;11.55;;;16.20;99.90;;;;;;5054943;28;20036;-26
2023/08/15 04:30:44;;;;;;;16.90;13.93;;;16.20;99.90;;;;;;5054626;28;20049;-26
2023/08/15 04:33:10;;;;;;;16.98;12.77;;;16.10;99.90;;;;;;5053663;28;20119;-26
2023/08/15 04:35:38;;;;;;;16.88;12.82;;;16.10;99.90;;;;;;5055300;28;20164;-26
2023/08/15 04:38:04;;;;;;;16.70;12.48;;;16.10;99.90;;;;;;5054812;28;20033;-26
2023/08/15 04:40:35;;;;;;;15.95;13.05;;;16.10;99.90;;;;;;5038070;28;20332;-27
2023/08/15 04:43:01;;;;;;;16.95;14.32;;;16.10;99.90;;;;;;5055049;28;20163;-26
2023/08/15 04:45:27;;;;;;;20.02;12.77;;;16.10;99.90;;;;;;5054221;28;20041;-26
2023/08/15 04:47:53;;;;;;;15.88;11.02;;;16.00;99.90;;;;;;5054562;28;20086;-25
2023/08/15 04:50:19;;;;;;;18.27;12.45;;;16.00;99.90;;;;;;5054551;28;20134;-25
2023/08/15 04:52:44;;;;;;;17.23;11.77;;;16.00;99.90;;;;;;5054534;28;20072;-26
2023/08/15 04:55:10;;;;;;;18.25;11.90;;;16.10;99.90;;;;;;5053106;28;20052;-26
2023/08/15 04:57:37;;;;;;;15.55;11.43;;;16.30;99.90;;;;;;5054477;28;20041;-26
2023/08/15 05:00:08;;;;;;;22.73;12.40;;;16.40;99.90;;;;;;5054357;28;20045;-26
2023/08/15 05:02:35;;;;;;;18.73;12.10;;;16.50;99.90;;;;;;5038388;28;20045;-26
2023/08/15 05:05:05;;;;;;;20.60;11.73;;;16.50;99.90;;;;;;5053165;28;20041;-26
2023/08/15 05:07:32;;;;;;;17.88;12.13;;;16.50;99.90;;;;;;5054241;28;20455;-26
2023/08/15 05:09:57;;;;;;;18.45;12.05;;;16.50;99.90;;;;;;5054772;28;20036;-26
2023/08/15 05:12:23;;;;;;;19.15;11.77;;;16.50;99.90;;;;;;5052691;28;20444;-26
2023/08/15 05:14:49;;;;;;;15.05;10.07;;;16.40;99.90;;;;;;5053414;28;20064;-26
2023/08/15 05:17:14;;;;;;;22.58;13.55;;;16.50;99.90;;;;;;5054119;28;20095;-26
2023/08/15 05:19:40;;;;;;;15.35;11.40;;;16.50;99.90;;;;;;5052348;28;20041;-25
2023/08/15 05:22:06;;;;;;;23.10;11.82;;;16.60;99.90;;;;;;5054051;28;20041;-26
2023/08/15 05:24:32;;;;;;;20.92;11.35;;;16.60;99.90;;;;;;5053994;28;20063;-25
2023/08/15 05:26:57;;;;;;;19.40;10.55;;;16.70;99.90;;;;;;5054772;28;20450;-25
2023/08/15 05:29:23;;;;;;;18.42;11.05;;;16.80;99.90;;;;;;5054145;28;20036;-26
2023/08/15 05:31:49;;;;;;;17.50;10.65;;;16.90;99.90;;;;;;5053912;28;20517;-26
2023/08/15 05:34:14;;;;;;;19.42;10.35;;;17.00;99.90;;;;;;5053882;28;20142;-26
2023/08/15 05:36:40;;;;;;;17.50;10.43;;;17.00;99.90;;;;;;5053811;28;20132;-26
2023/08/15 05:39:06;;;;;;;18.30;9.38;;;17.10;99.90;;;;;;5053804;28;20037;-25
2023/08/15 05:41:32;;;;;;;14.40;11.07;;;17.10;99.90;;;;;;5054045;28;20045;-25
2023/08/15 05:43:57;;;;;;;11.90;9.43;;;17.20;99.90;;;;;;5053735;28;20041;-26
2023/08/15 05:46:23;;;;;;;14.68;8.27;;;17.20;99.90;;;;;;5054504;28;20040;-26
2023/08/15 05:48:48;;;;;;;13.20;9.93;;;17.20;99.90;;;;;;5052989;28;20077;-26
2023/08/15 05:51:14;;;;;;;14.02;10.10;;;17.20;99.90;;;;;;5053349;28;20127;-26
2023/08/15 05:53:40;;;;;;;17.52;10.55;;;17.20;99.90;;;;;;5053619;28;20107;-26
2023/08/15 05:56:06;;;;;;;12.93;9.10;;;17.10;99.90;;;;;;5051916;28;20492;-26
2023/08/15 05:58:31;;;;;;;14.05;9.13;;;17.10;99.90;;;;;;5054408;28;20048;-26
2023/08/15 06:00:57;;;;;;;14.20;8.05;;;17.10;99.90;;;;;;5053576;28;20460;-25
2023/08/15 06:03:23;;;;;;;16.92;8.77;;;17.10;99.90;;;;;;5054345;28;20037;-26
2023/08/15 06:05:49;;;;;;;17.73;7.60;;;17.20;99.90;;;;;;5053547;28;20458;-27
2023/08/15 06:08:15;;;;;;;10.77;7.30;;;17.30;99.90;;;;;;5053159;28;20490;-26
2023/08/15 06:10:40;;;;;;;12.02;7.10;;;17.20;99.90;;;;;;5053464;28;20039;-26
2023/08/15 06:13:06;;;;;;;13.65;7.90;;;17.20;99.90;;;;;;5053468;28;20045;-25
2023/08/15 06:15:32;;;;;;;17.45;7.50;;;17.30;99.90;;;;;;5053474;28;20110;-26
2023/08/15 06:17:57;;;;;;;21.25;7.85;;;17.30;99.90;;;;;;5053433;28;20037;-26
2023/08/15 06:20:23;;;;;;;12.00;6.35;;;17.50;99.90;;;;;;5053954;28;20044;-26
2023/08/15 06:22:49;;;;;;;15.32;7.18;;;17.60;99.90;;;;;;5053952;28;20371;-26
2023/08/15 06:25:15;;;;;;;13.57;6.60;;;17.70;99.90;;;;;;5052199;28;20178;-25
2023/08/15 06:27:40;;;;;;;13.43;6.35;;;17.80;99.90;;;;;;5054084;28;20099;-26
2023/08/15 06:30:07;;;;;;;13.90;6.57;;;17.90;99.90;;;;;;5053309;28;20037;-26
2023/08/15 06:32:33;;;;;;;14.00;6.20;;;18.00;99.90;;;;;;5053708;28;20127;-26
2023/08/15 06:35:03;;;;;;;12.45;5.18;;;18.10;99.90;;;;;;5056758;28;20090;-24
2023/08/15 06:37:29;;;;;;;15.05;4.88;;;18.20;99.90;;;;;;5057732;28;20084;-26
2023/08/15 06:39:55;;;;;;;11.95;5.20;;;18.30;99.90;;;;;;5057082;28;20449;-26
2023/08/15 06:42:20;;;;;;;15.60;5.60;;;18.40;99.90;;;;;;5056070;28;20056;-26
2023/08/15 06:44:46;;;;;;;14.60;5.88;;;18.40;99.90;;;;;;5055809;28;20072;-26
2023/08/15 06:47:12;;;;;;;11.65;4.93;;;18.50;99.90;;;;;;5056868;28;20401;-26
2023/08/15 06:49:37;;;;;;;15.02;4.82;;;18.70;99.90;;;;;;5055932;28;20041;-27
2023/08/15 06:52:03;;;;;;;16.70;6.35;;;18.70;99.90;;;;;;5057591;28;20414;-26
2023/08/15 06:54:30;;;;;;;12.85;5.55;;;18.80;99.90;;;;;;5056511;28;20381;-26
2023/08/15 06:56:56;;;;;;;12.73;5.63;;;18.90;99.90;;;;;;5057245;28;20044;-26
2023/08/15 06:59:23;;;;;;;14.00;6.03;;;19.00;99.90;;;;;;5055689;28;20044;-26
2023/08/15 07:01:57;;;;;;;17.20;5.20;;;18.90;99.90;;;;;;5056668;28;20076;-27
2023/08/15 07:04:23;;;;;;;12.10;4.60;;;19.00;99.90;;;;;;5056669;28;20076;-26
2023/08/15 07:06:50;;;;;;;13.95;4.97;;;19.10;99.90;;;;;;5055566;28;20087;-26
2023/08/15 07:09:16;;;;;;;11.43;4.43;;;19.20;99.90;;;;;;5055170;28;20102;-27
2023/08/15 07:11:41;;;;;;;11.00;4.63;;;19.30;99.90;;;;;;5056357;28;20045;-26
2023/08/15 07:14:07;;;;;;;11.90;4.18;;;19.40;99.90;;;;;;5055948;28;20082;-26
2023/08/15 07:16:33;;;;;;;11.23;4.28;;;19.50;99.90;;;;;;5056234;28;20045;-26
2023/08/15 07:18:58;;;;;;;13.68;5.22;;;19.60;99.90;;;;;;5055296;28;20033;-26
2023/08/15 07:21:24;;;;;;;9.82;4.22;;;19.70;99.90;;;;;;5056214;28;20036;-27
2023/08/15 07:23:50;;;;;;;11.95;4.80;;;19.70;99.90;;;;;;5056389;28;20040;-26
2023/08/15 07:26:16;;;;;;;9.52;3.90;;;19.80;99.90;;;;;;5056040;28;20466;-26
2023/08/15 07:28:42;;;;;;;8.20;3.45;;;19.80;99.90;;;;;;5056238;28;20040;-26
2023/08/15 07:31:08;;;;;;;13.70;4.00;;;19.80;99.90;;;;;;5055111;28;20470;-26
2023/08/15 07:33:33;;;;;;;9.65;3.65;;;20.00;99.90;;;;;;5055396;28;20045;-26
2023/08/15 07:35:59;;;;;;;8.30;3.05;;;20.00;99.90;;;;;;5056153;28;20044;-26
2023/08/15 07:38:25;;;;;;;8.38;3.60;;;20.10;99.90;;;;;;5056542;28;20426;-26
2023/08/15 07:40:51;;;;;;;10.88;2.90;;;20.20;99.90;;;;;;5055973;28;20045;-27
2023/08/15 07:43:16;;;;;;;9.02;2.97;;;20.20;99.90;;;;;;5055353;28;20458;-26
2023/08/15 07:45:42;;;;;;;6.45;2.95;;;20.20;99.90;;;;;;5055873;28;20421;-27
2023/08/15 07:48:08;;;;;;;8.57;2.88;;;20.20;42.30;;;;;;5055710;28;20032;-27
2023/08/15 07:50:34;;;;;;;7.80;1.80;;;20.20;12.30;;;;;;5055795;28;20102;-27
2023/08/15 07:53:00;;;;;;;8.80;2.63;;;20.10;1.00;;;;;;5055729;28;20041;-28
2023/08/15 07:55:27;;;;;;;8.50;2.28;;;20.10;1.00;;;;;;5021554;28;20098;-26
2023/08/15 07:57:53;;;;;;;6.10;1.92;;;20.30;1.00;;;;;;5055597;28;20567;-27
2023/08/15 08:00:19;;;;;;;8.50;2.78;;;20.30;1.00;;;;;;5055578;28;20084;-27
2023/08/15 08:02:45;;;;;;;8.30;2.30;;;20.40;1.00;;;;;;5055509;28;20040;-26
2023/08/15 08:05:14;;;;;;;7.05;2.45;;;20.60;1.00;;;;;;5055464;28;20040;-27
2023/08/15 08:07:41;;;;;;;8.77;2.55;;;20.60;99.90;;;;;;5055383;28;20045;-27
2023/08/15 08:10:07;;;;;;;10.07;2.55;;;20.50;99.90;;;;;;5054226;28;20044;-27
2023/08/15 08:12:33;;;;;;;6.90;1.98;;;20.60;99.90;;;;;;5055339;28;20053;-27
2023/08/15 08:14:59;;;;;;;6.60;1.77;;;20.70;99.90;;;;;;5055247;28;20438;-27
2023/08/15 08:17:25;;;;;;;7.47;2.30;;;20.80;99.90;;;;;;5056068;28;20037;-26
2023/08/15 08:19:51;;;;;;;5.75;2.38;;;21.00;99.90;;;;;;5054270;28;20535;-26
2023/08/15 08:22:16;;;;;;;6.45;1.80;;;21.30;99.90;;;;;;5055172;28;20044;-26
2023/08/15 08:24:42;;;;;;;5.40;1.85;;;21.30;99.90;;;;;;5055737;28;20041;-28
2023/08/15 08:27:08;;;;;;;10.98;2.15;;;21.20;11.20;;;;;;5054910;28;20458;-26
2023/08/15 08:29:34;;;;;;;10.23;2.28;;;21.20;76.60;;;;;;5054986;28;20044;-26
2023/08/15 08:32:00;;;;;;;7.35;2.05;;;21.20;1.00;;;;;;5053776;28;20462;-26
2023/08/15 08:34:25;;;;;;;5.97;2.30;;;21.30;1.00;;;;;;5055166;28;20040;-27
2023/08/15 08:36:51;;;;;;;8.02;2.08;;;21.40;1.90;;;;;;5054865;28;20458;-27
2023/08/15 08:39:17;;;;;;;6.15;1.63;;;21.50;1.00;;;;;;5054796;28;20364;-26
2023/08/15 08:41:42;;;;;;;4.45;1.38;;;21.40;1.00;;;;;;5054935;28;20049;-26
2023/08/15 08:44:10;;;;;;;7.22;2.15;;;21.40;1.00;;;;;;5054752;28;20044;-26
2023/08/15 08:46:36;;;;;;;6.20;2.05;;;21.30;1.00;;;;;;5053981;28;20052;-26
2023/08/15 08:49:04;;;;;;;3.60;1.38;;;21.50;1.00;;;;;;5054601;28;20347;-27
2023/08/15 08:51:32;;;;;;;7.50;1.95;;;21.40;99.90;;;;;;5053608;28;20098;-26
2023/08/15 08:53:58;;;;;;;4.10;1.25;;;21.50;99.90;;;;;;5054904;28;20134;-27
2023/08/15 08:56:29;;;;;;;6.38;1.55;;;21.60;99.90;;;;;;5052648;28;20462;-26
2023/08/15 08:59:05;;;;;;;5.22;2.00;;;21.70;99.90;;;;;;5055092;28;20043;-26
2023/08/15 09:01:31;;;;;;;5.22;1.30;;;21.80;99.90;;;;;;5054383;28;20048;-26
2023/08/15 09:03:57;;;;;;;5.80;1.30;;;21.90;99.90;;;;;;5054054;28;20478;-26
2023/08/15 09:06:27;;;;;;;5.93;1.30;;;22.50;99.90;;;;;;5054300;28;20049;-27
2023/08/15 09:08:58;;;;;;;5.72;2.25;;;22.60;99.90;;;;;;5054222;28;20049;-27
2023/08/15 09:11:31;;;;;;;9.18;2.05;;;23.40;38.30;;;;;;5054858;28;20091;-27
2023/08/15 09:14:01;;;;;;;8.55;2.65;;;23.50;99.90;;;;;;5055023;28;20037;-27
2023/08/15 09:16:26;;;;;;;8.07;2.35;;;23.40;99.90;;;;;;5053196;28;20048;-27
2023/08/15 09:18:52;;;;;;;7.18;1.88;;;23.00;99.90;;;;;;5052767;28;20041;-27
2023/08/15 09:21:18;;;;;;;4.70;1.67;;;23.20;99.90;;;;;;5053155;28;20115;-27
2023/08/15 09:23:45;;;;;;;5.22;1.73;;;23.30;99.90;;;;;;5053950;28;20442;-27
2023/08/15 09:26:12;;;;;;;6.10;2.08;;;23.20;99.90;;;;;;5019547;28;20373;-27
2023/08/15 09:28:43;;;;;;;3.58;1.38;;;23.00;1.00;;;;;;5053878;28;20041;-28
2023/08/15 09:31:10;;;;;;;4.53;1.27;;;23.30;67.90;;;;;;5054548;28;20056;-27
2023/08/15 09:33:39;;;;;;;4.40;1.20;;;23.70;99.90;;;;;;5053802;28;20049;-27
2023/08/15 09:36:09;;;;;;;5.97;1.30;;;23.60;1.00;;;;;;5053449;28;20132;-27
2023/08/15 09:38:39;;;;;;;5.45;1.55;;;24.00;99.90;;;;;;5053800;28;20080;-28
2023/08/15 09:41:05;;;;;;;5.50;1.17;;;24.20;1.00;;;;;;5053793;28;20040;-26
2023/08/15 09:43:32;;;;;;;6.60;1.13;;;24.00;99.90;;;;;;5053802;28;20037;-27
2023/08/15 09:45:59;;;;;;;4.35;1.63;;;24.00;1.00;;;;;;5053093;28;20047;-27
2023/08/15 09:48:29;;;;;;;5.43;1.85;;;23.80;92.50;;;;;;5053518;28;20545;-26
2023/08/15 09:50:56;;;;;;;7.25;1.02;;;24.10;99.90;;;;;;5064304;28;20036;-27
2023/08/15 09:53:23;;;;;;;5.40;1.48;;;24.70;99.90;;;;;;5073413;28;20055;-27
2023/08/15 09:55:49;;;;;;;2.63;0.90;;;25.20;99.90;;;;;;5062783;28;20053;-27
2023/08/15 09:58:16;;;;;;;5.15;1.45;;;24.70;99.90;;;;;;5070527;28;20052;-28
2023/08/15 10:00:43;;;;;;;11.80;1.83;;;24.50;99.90;;;;;;5068752;28;20045;-27
2023/08/15 10:03:19;;;;;;;6.22;1.23;;;24.40;99.90;;;;;;5068445;28;20048;-27
2023/08/15 10:05:53;;;;;;;3.80;1.05;;;24.60;99.90;;;;;;5073972;28;20509;-27
2023/08/15 10:08:20;;;;;;;4.50;1.55;;;24.70;29.60;;;;;;5077585;28;20490;-27
2023/08/15 10:10:50;;;;;;;4.13;1.35;;;25.00;99.90;;;;;;5077387;28;20048;-27
2023/08/15 10:13:18;;;;;;;4.22;1.00;;;24.90;43.80;;;;;;5073186;28;20055;-27
2023/08/15 10:15:44;;;;;;;10.65;1.25;;;24.70;99.90;;;;;;5077471;28;20102;-28
2023/08/15 10:18:10;;;;;;;2.88;1.13;;;24.90;99.90;;;;;;5077413;28;20047;-28
2023/08/15 10:20:37;;;;;;;5.95;1.60;;;25.30;99.90;;;;;;5077930;28;20040;-27
2023/08/15 10:23:07;;;;;;;5.90;1.80;;;25.00;99.90;;;;;;5075494;28;20045;-28
2023/08/15 10:25:35;;;;;;;7.18;1.67;;;24.30;1.00;;;;;;5077867;28;20044;-28
2023/08/15 10:28:08;;;;;;;5.88;1.67;;;24.30;1.00;;;;;;5077182;28;20066;-28
2023/08/15 10:30:41;;;;;;;8.45;1.67;;;24.60;99.90;;;;;;5076450;28;20048;-28
2023/08/15 10:33:18;;;;;;;7.40;1.50;;;24.70;99.90;;;;;;5070908;28;20044;-28
2023/08/15 10:35:56;;;;;;;5.38;1.48;;;25.00;1.00;;;;;;5056263;28;20399;-35
2023/08/15 10:38:27;;;;;;;4.55;1.35;;;25.20;28.20;;;;;;5058077;28;20096;-29
2023/08/15 10:41:07;;;;;;;1.92;0.85;;;25.40;1.00;;;;;;5065625;28;20128;-27
2023/08/15 10:43:34;;;;;;;4.95;0.80;;;25.20;99.90;;;;;;5064235;28;20036;-27
2023/08/15 10:46:01;;;;;;;6.88;1.20;;;25.50;99.90;;;;;;5075636;28;20132;-27
2023/08/15 10:48:43;;;;;;;4.15;0.70;;;25.60;99.90;;;;;;5057874;28;20045;-27
2023/08/15 10:51:21;;;;;;;4.63;1.10;;;25.60;99.90;;;;;;5056841;28;20578;-29
2023/08/15 10:53:56;;;;;;;2.97;1.10;;;25.00;99.90;;;;;;5057312;28;20045;-29
2023/08/15 10:56:25;;;;;;;3.95;1.20;;;24.90;1.00;;;;;;5058885;28;20053;-27
2023/08/15 10:58:51;;;;;;;5.32;1.40;;;24.90;99.90;;;;;;5059383;28;20123;-28
2023/08/15 11:01:18;;;;;;;3.83;0.60;;;24.60;99.90;;;;;;5066979;28;20128;-25
2023/08/15 11:03:48;;;;;;;5.10;1.45;;;24.30;99.90;;;;;;5066073;28;20039;-27
2023/08/15 11:06:14;;;;;;;2.80;1.20;;;24.30;99.90;;;;;;5069311;28;20054;-26
2023/08/15 11:08:49;;;;;;;5.68;1.67;;;24.20;14.60;;;;;;5069373;28;20128;-29
2023/08/15 11:11:16;;;;;;;4.85;1.15;;;24.40;99.90;;;;;;5072871;28;20076;-26
2023/08/15 11:13:47;;;;;;;1.73;0.50;;;24.30;99.90;;;;;;5060543;28;20045;-28
2023/08/15 11:16:21;;;;;;;4.32;1.13;;;24.60;99.90;;;;;;5075798;28;20048;-28
2023/08/15 11:18:47;;;;;;;5.72;0.80;;;24.60;99.90;;;;;;5068039;28;20040;-27
2023/08/15 11:21:16;;;;;;;2.15;0.90;;;24.60;99.90;;;;;;5039343;28;20053;-28
2023/08/15 11:23:42;;;;;;;2.70;0.80;;;24.50;99.90;;;;;;5069914;28;20123;-28
2023/08/15 11:26:10;;;;;;;5.90;0.90;;;24.50;99.90;;;;;;5071499;28;20460;-28
2023/08/15 11:28:36;;;;;;;3.08;1.17;;;24.90;99.90;;;;;;5067012;28;20494;-30
2023/08/15 11:31:07;;;;;;;5.97;1.10;;;25.80;99.90;;;;;;5056309;28;20094;-28
2023/08/15 11:33:32;;;;;;;4.93;1.35;;;25.90;99.90;;;;;;5054886;28;20498;-28
2023/08/15 11:36:03;;;;;;;3.38;0.95;;;25.60;99.90;;;;;;5054732;28;20041;-29
2023/08/15 11:38:30;;;;;;;4.32;1.55;;;25.40;99.90;;;;;;5076007;28;20045;-29
2023/08/15 11:40:57;;;;;;;5.10;1.02;;;25.30;99.90;;;;;;5075837;28;20048;-29
2023/08/15 11:43:25;;;;;;;2.47;0.90;;;25.10;99.90;;;;;;5071012;28;20447;-29
2023/08/15 11:45:51;;;;;;;4.55;0.70;;;25.00;99.90;;;;;;5044867;28;20040;-29
2023/08/15 11:48:17;;;;;;;5.00;1.20;;;24.90;99.90;;;;;;5058921;28;20477;-29
2023/08/15 11:50:43;;;;;;;3.63;1.23;;;25.20;99.90;;;;;;5054215;28;20391;-30
2023/08/15 11:53:14;;;;;;;4.70;1.00;;;25.20;99.90;;;;;;5055660;28;20182;-29
2023/08/15 11:55:41;;;;;;;7.30;1.00;;;25.20;99.90;;;;;;5054491;28;20057;-28
2023/08/15 11:58:26;;;;;;;3.15;0.95;;;25.40;99.90;;;;;;5058564;28;20494;-26
2023/08/15 12:00:55;;;;;;;2.70;1.00;;;25.50;99.90;;;;;;5040479;28;20547;-29
2023/08/15 12:03:20;;;;;;;4.75;1.10;;;24.90;99.90;;;;;;5067763;28;20052;-24
2023/08/15 12:05:46;;;;;;;5.22;1.13;;;23.90;99.90;;;;;;5066690;28;20040;-30
2023/08/15 12:08:18;;;;;;;3.30;1.02;;;23.50;1.00;;;;;;5064910;28;20091;-28
2023/08/15 12:10:45;;;;;;;6.95;1.00;;;23.40;99.90;;;;;;5035010;28;20449;-29
2023/08/15 12:13:12;;;;;;;4.40;1.40;;;23.80;99.90;;;;;;5067162;28;20079;-29
2023/08/15 12:15:38;;;;;;;3.28;0.98;;;24.30;99.90;;;;;;5070670;28;20116;-29
2023/08/15 12:18:04;;;;;;;4.40;0.90;;;24.80;1.00;;;;;;5054705;28;20621;-28
2023/08/15 12:20:29;;;;;;;5.80;1.98;;;25.30;99.90;;;;;;5064615;28;20478;-28
2023/08/15 12:22:55;;;;;;;4.00;1.08;;;25.60;99.90;;;;;;5069216;28;20479;-29
2023/08/15 12:25:21;;;;;;;3.92;0.90;;;26.10;99.90;;;;;;5059979;28;20479;-29
2023/08/15 12:27:47;;;;;;;2.53;0.75;;;26.20;99.90;;;;;;5074669;28;20052;-29
2023/08/15 12:30:13;;;;;;;3.08;0.80;;;25.60;99.90;;;;;;5037751;28;20045;-30
2023/08/15 12:32:39;;;;;;;5.88;1.17;;;25.10;99.90;;;;;;5017622;28;20384;-29
2023/08/15 12:35:05;;;;;;;3.15;0.80;;;25.10;99.90;;;;;;5069874;28;20076;-29
2023/08/15 12:37:30;;;;;;;4.47;0.93;;;25.60;99.90;;;;;;5055454;28;20049;-29